Evergem, Belgium
Current Conditions -  °F | °C
As of 3:25 AM on Tuesday 23 Dec 2014 (Local Time) from EHFS Reporting Station
Overcast Overcast  
Wind Chill: 11°   Ceiling: 2100
Heat Index: 11°   Visibility: 5mi
Dew Point:   Wind: 35mph
Humidity: 82%   Direction: 250°WSW
Pressure: 30.06"   Gusts: NA
Location:  51.11°N, 3.7°E
Report Text: EHFS 230225Z AUTO 25030KT 8000 OVC021/// 11/08 Q1018
Loading
Personal Weather Stations






























Interactive Weather Map New forecast layout! Learn more

10-Day Weather Forecast

Advertisements
Track Severe Weather on mobile